sensor_id;sensor_type;location;lat;lon;timestamp;P1;durP1;ratioP1;P2;durP2;ratioP2
20000;SDS011;10161;41.188;-8.642;2022-07-10T00:02:28;5.40;;;4.90;;
20000;SDS011;10161;41.188;-8.642;2022-07-10T00:04:55;6.27;;;5.47;;
20000;SDS011;10161;41.188;-8.642;2022-07-10T00:07:22;8.40;;;5.73;;
20000;SDS011;10161;41.188;-8.642;2022-07-10T00:09:49;5.43;;;4.93;;
20000;SDS011;10161;41.188;-8.642;2022-07-10T00:12:17;8.47;;;5.87;;
20000;SDS011;10161;41.188;-8.642;2022-07-10T00:14:44;5.60;;;5.10;;
20000;SDS011;10161;41.188;-8.642;2022-07-10T00:17:11;5.17;;;4.60;;
20000;SDS011;10161;41.188;-8.642;2022-07-10T00:19:38;5.53;;;5.03;;
20000;SDS011;10161;41.188;-8.642;2022-07-10T00:22:05;4.90;;;4.50;;
20000;SDS011;10161;41.188;-8.642;2022-07-10T00:24:32;5.10;;;4.60;;
20000;SDS011;10161;41.188;-8.642;2022-07-10T00:26:59;5.23;;;4.70;;
20000;SDS011;10161;41.188;-8.642;2022-07-10T00:29:27;5.27;;;4.87;;
20000;SDS011;10161;41.188;-8.642;2022-07-10T00:31:54;4.93;;;4.53;;
20000;SDS011;10161;41.188;-8.642;2022-07-10T00:36:58;6.57;;;5.87;;
20000;SDS011;10161;41.188;-8.642;2022-07-10T00:39:25;6.60;;;5.57;;
20000;SDS011;10161;41.188;-8.642;2022-07-10T00:41:52;5.73;;;4.90;;
20000;SDS011;10161;41.188;-8.642;2022-07-10T00:47:42;11.17;;;5.93;;
20000;SDS011;10161;41.188;-8.642;2022-07-10T00:50:09;7.53;;;5.50;;
20000;SDS011;10161;41.188;-8.642;2022-07-10T00:52:37;5.10;;;4.30;;
20000;SDS011;10161;41.188;-8.642;2022-07-10T00:55:05;5.57;;;4.77;;
20000;SDS011;10161;41.188;-8.642;2022-07-10T00:57:32;5.67;;;4.70;;
20000;SDS011;10161;41.188;-8.642;2022-07-10T01:00:08;5.10;;;4.60;;
20000;SDS011;10161;41.188;-8.642;2022-07-10T01:02:36;6.23;;;5.30;;
20000;SDS011;10161;41.188;-8.642;2022-07-10T01:05:06;5.60;;;5.10;;
20000;SDS011;10161;41.188;-8.642;2022-07-10T01:10:55;6.00;;;5.50;;
20000;SDS011;10161;41.188;-8.642;2022-07-10T01:13:22;5.30;;;4.80;;
20000;SDS011;10161;41.188;-8.642;2022-07-10T01:15:49;5.17;;;4.47;;
20000;SDS011;10161;41.188;-8.642;2022-07-10T01:18:16;4.80;;;4.40;;
20000;SDS011;10161;41.188;-8.642;2022-07-10T01:20:44;6.80;;;4.67;;
20000;SDS011;10161;41.188;-8.642;2022-07-10T01:23:13;10.13;;;4.80;;
20000;SDS011;10161;41.188;-8.642;2022-07-10T01:25:40;5.60;;;5.10;;
20000;SDS011;10161;41.188;-8.642;2022-07-10T01:28:07;5.80;;;5.20;;
20000;SDS011;10161;41.188;-8.642;2022-07-10T01:30:34;5.10;;;4.60;;
20000;SDS011;10161;41.188;-8.642;2022-07-10T01:33:01;4.97;;;4.57;;
20000;SDS011;10161;41.188;-8.642;2022-07-10T01:35:28;6.27;;;5.53;;
20000;SDS011;10161;41.188;-8.642;2022-07-10T01:37:55;5.73;;;5.13;;
20000;SDS011;10161;41.188;-8.642;2022-07-10T01:40:23;5.10;;;4.60;;
20000;SDS011;10161;41.188;-8.642;2022-07-10T01:46:08;4.93;;;4.40;;
20000;SDS011;10161;41.188;-8.642;2022-07-10T01:48:36;4.63;;;4.23;;
20000;SDS011;10161;41.188;-8.642;2022-07-10T01:51:03;5.03;;;4.50;;
20000;SDS011;10161;41.188;-8.642;2022-07-10T01:53:31;5.87;;;5.03;;
20000;SDS011;10161;41.188;-8.642;2022-07-10T01:55:59;5.30;;;4.87;;
20000;SDS011;10161;41.188;-8.642;2022-07-10T01:58:27;9.03;;;5.30;;
20000;SDS011;10161;41.188;-8.642;2022-07-10T02:00:54;6.17;;;4.57;;
20000;SDS011;10161;41.188;-8.642;2022-07-10T02:03:21;5.50;;;4.80;;
20000;SDS011;10161;41.188;-8.642;2022-07-10T02:06:06;5.17;;;4.67;;
20000;SDS011;10161;41.188;-8.642;2022-07-10T02:08:33;5.20;;;4.70;;
20000;SDS011;10161;41.188;-8.642;2022-07-10T02:11:01;5.50;;;5.03;;
20000;SDS011;10161;41.188;-8.642;2022-07-10T02:13:28;6.00;;;4.80;;
20000;SDS011;10161;41.188;-8.642;2022-07-10T02:15:55;4.83;;;4.43;;
20000;SDS011;10161;41.188;-8.642;2022-07-10T02:18:22;6.33;;;5.47;;
20000;SDS011;10161;41.188;-8.642;2022-07-10T02:24:11;6.27;;;5.67;;
20000;SDS011;10161;41.188;-8.642;2022-07-10T02:26:39;6.57;;;5.90;;
20000;SDS011;10161;41.188;-8.642;2022-07-10T02:29:06;6.40;;;5.80;;
20000;SDS011;10161;41.188;-8.642;2022-07-10T02:31:33;6.33;;;5.73;;
20000;SDS011;10161;41.188;-8.642;2022-07-10T02:34:05;7.10;;;6.40;;
20000;SDS011;10161;41.188;-8.642;2022-07-10T02:36:32;6.03;;;5.33;;
20000;SDS011;10161;41.188;-8.642;2022-07-10T02:38:59;7.70;;;6.93;;
20000;SDS011;10161;41.188;-8.642;2022-07-10T02:41:26;9.70;;;6.90;;
20000;SDS011;10161;41.188;-8.642;2022-07-10T02:43:55;7.30;;;6.17;;
20000;SDS011;10161;41.188;-8.642;2022-07-10T02:46:22;7.43;;;6.60;;
20000;SDS011;10161;41.188;-8.642;2022-07-10T02:48:49;8.80;;;7.37;;
20000;SDS011;10161;41.188;-8.642;2022-07-10T02:51:16;10.63;;;7.30;;
20000;SDS011;10161;41.188;-8.642;2022-07-10T02:57:05;5.80;;;5.30;;
20000;SDS011;10161;41.188;-8.642;2022-07-10T02:59:33;9.40;;;6.33;;
20000;SDS011;10161;41.188;-8.642;2022-07-10T03:02:01;7.37;;;6.60;;
20000;SDS011;10161;41.188;-8.642;2022-07-10T03:07:49;6.13;;;5.53;;
20000;SDS011;10161;41.188;-8.642;2022-07-10T03:10:16;7.30;;;6.20;;
20000;SDS011;10161;41.188;-8.642;2022-07-10T03:12:43;9.73;;;8.10;;
20000;SDS011;10161;41.188;-8.642;2022-07-10T03:15:22;8.60;;;7.80;;
20000;SDS011;10161;41.188;-8.642;2022-07-10T03:17:49;9.17;;;8.27;;
20000;SDS011;10161;41.188;-8.642;2022-07-10T03:20:16;9.57;;;8.10;;
20000;SDS011;10161;41.188;-8.642;2022-07-10T03:22:53;7.20;;;6.50;;
20000;SDS011;10161;41.188;-8.642;2022-07-10T03:25:20;6.90;;;6.30;;
20000;SDS011;10161;41.188;-8.642;2022-07-10T03:27:47;9.03;;;7.50;;
20000;SDS011;10161;41.188;-8.642;2022-07-10T03:30:14;9.83;;;8.90;;
20000;SDS011;10161;41.188;-8.642;2022-07-10T03:32:42;13.60;;;9.47;;
20000;SDS011;10161;41.188;-8.642;2022-07-10T03:35:09;13.23;;;10.10;;
20000;SDS011;10161;41.188;-8.642;2022-07-10T03:37:36;10.13;;;9.23;;
20000;SDS011;10161;41.188;-8.642;2022-07-10T03:40:04;14.57;;;11.30;;
20000;SDS011;10161;41.188;-8.642;2022-07-10T03:42:31;11.23;;;10.17;;
20000;SDS011;10161;41.188;-8.642;2022-07-10T03:44:58;13.47;;;12.17;;
20000;SDS011;10161;41.188;-8.642;2022-07-10T03:47:25;13.10;;;11.80;;
20000;SDS011;10161;41.188;-8.642;2022-07-10T03:49:58;11.90;;;10.37;;
20000;SDS011;10161;41.188;-8.642;2022-07-10T03:52:25;14.77;;;13.23;;
20000;SDS011;10161;41.188;-8.642;2022-07-10T03:54:53;11.73;;;10.63;;
20000;SDS011;10161;41.188;-8.642;2022-07-10T04:00:41;13.33;;;11.43;;
20000;SDS011;10161;41.188;-8.642;2022-07-10T04:03:08;14.33;;;12.93;;
20000;SDS011;10161;41.188;-8.642;2022-07-10T04:05:37;12.13;;;11.03;;
20000;SDS011;10161;41.188;-8.642;2022-07-10T04:08:05;12.60;;;10.57;;
20000;SDS011;10161;41.188;-8.642;2022-07-10T04:10:32;14.53;;;13.13;;
20000;SDS011;10161;41.188;-8.642;2022-07-10T04:12:59;14.43;;;12.97;;
20000;SDS011;10161;41.188;-8.642;2022-07-10T04:15:27;13.00;;;11.23;;
20000;SDS011;10161;41.188;-8.642;2022-07-10T04:17:54;14.30;;;12.90;;
20000;SDS011;10161;41.188;-8.642;2022-07-10T04:20:21;18.20;;;16.30;;
20000;SDS011;10161;41.188;-8.642;2022-07-10T04:22:50;16.80;;;14.33;;
20000;SDS011;10161;41.188;-8.642;2022-07-10T04:25:17;18.97;;;17.07;;
20000;SDS011;10161;41.188;-8.642;2022-07-10T04:27:44;20.77;;;18.67;;
20000;SDS011;10161;41.188;-8.642;2022-07-10T04:33:32;19.73;;;16.60;;
20000;SDS011;10161;41.188;-8.642;2022-07-10T04:35:59;17.70;;;16.00;;
20000;SDS011;10161;41.188;-8.642;2022-07-10T04:38:28;19.10;;;17.40;;
20000;SDS011;10161;41.188;-8.642;2022-07-10T04:40:56;20.17;;;15.37;;
20000;SDS011;10161;41.188;-8.642;2022-07-10T04:43:23;16.20;;;14.80;;
20000;SDS011;10161;41.188;-8.642;2022-07-10T04:45:50;16.97;;;15.30;;
20000;SDS011;10161;41.188;-8.642;2022-07-10T04:48:17;18.10;;;16.50;;
20000;SDS011;10161;41.188;-8.642;2022-07-10T04:50:44;14.23;;;12.90;;
20000;SDS011;10161;41.188;-8.642;2022-07-10T04:53:12;12.47;;;11.37;;
20000;SDS011;10161;41.188;-8.642;2022-07-10T04:55:40;15.03;;;13.63;;
20000;SDS011;10161;41.188;-8.642;2022-07-10T04:58:07;17.00;;;14.67;;
20000;SDS011;10161;41.188;-8.642;2022-07-10T05:00:34;17.80;;;16.13;;
20000;SDS011;10161;41.188;-8.642;2022-07-10T05:03:01;17.40;;;15.67;;
20000;SDS011;10161;41.188;-8.642;2022-07-10T05:05:28;17.03;;;15.40;;
20000;SDS011;10161;41.188;-8.642;2022-07-10T05:07:55;20.57;;;18.00;;
20000;SDS011;10161;41.188;-8.642;2022-07-10T05:10:22;19.57;;;17.77;;
20000;SDS011;10161;41.188;-8.642;2022-07-10T05:12:50;21.03;;;18.20;;
20000;SDS011;10161;41.188;-8.642;2022-07-10T05:15:17;23.03;;;20.77;;
20000;SDS011;10161;41.188;-8.642;2022-07-10T05:17:44;21.57;;;19.37;;
20000;SDS011;10161;41.188;-8.642;2022-07-10T05:20:11;16.37;;;14.87;;
20000;SDS011;10161;41.188;-8.642;2022-07-10T05:22:38;19.37;;;17.43;;
20000;SDS011;10161;41.188;-8.642;2022-07-10T05:25:05;21.10;;;19.17;;
20000;SDS011;10161;41.188;-8.642;2022-07-10T05:27:32;18.67;;;16.77;;
20000;SDS011;10161;41.188;-8.642;2022-07-10T05:30:00;18.40;;;16.60;;
20000;SDS011;10161;41.188;-8.642;2022-07-10T05:32:27;18.90;;;17.10;;
20000;SDS011;10161;41.188;-8.642;2022-07-10T05:34:56;19.80;;;17.80;;
20000;SDS011;10161;41.188;-8.642;2022-07-10T05:37:23;19.70;;;17.90;;
20000;SDS011;10161;41.188;-8.642;2022-07-10T05:39:51;22.73;;;19.50;;
20000;SDS011;10161;41.188;-8.642;2022-07-10T05:42:18;20.70;;;18.67;;
20000;SDS011;10161;41.188;-8.642;2022-07-10T05:44:45;20.83;;;18.60;;
20000;SDS011;10161;41.188;-8.642;2022-07-10T05:47:13;18.50;;;16.60;;
20000;SDS011;10161;41.188;-8.642;2022-07-10T05:52:29;23.33;;;20.83;;
20000;SDS011;10161;41.188;-8.642;2022-07-10T05:54:56;20.10;;;17.90;;
20000;SDS011;10161;41.188;-8.642;2022-07-10T05:57:23;21.30;;;19.30;;
20000;SDS011;10161;41.188;-8.642;2022-07-10T05:59:51;21.37;;;19.27;;
20000;SDS011;10161;41.188;-8.642;2022-07-10T06:02:19;18.67;;;16.80;;
20000;SDS011;10161;41.188;-8.642;2022-07-10T06:04:46;26.47;;;21.47;;
20000;SDS011;10161;41.188;-8.642;2022-07-10T06:07:14;21.87;;;19.67;;
20000;SDS011;10161;41.188;-8.642;2022-07-10T06:09:41;19.27;;;17.30;;
20000;SDS011;10161;41.188;-8.642;2022-07-10T06:12:08;18.57;;;16.90;;
20000;SDS011;10161;41.188;-8.642;2022-07-10T06:14:35;24.90;;;22.30;;
20000;SDS011;10161;41.188;-8.642;2022-07-10T06:19:55;23.67;;;21.17;;
20000;SDS011;10161;41.188;-8.642;2022-07-10T06:22:22;16.80;;;15.10;;
20000;SDS011;10161;41.188;-8.642;2022-07-10T06:24:59;21.37;;;19.10;;
20000;SDS011;10161;41.188;-8.642;2022-07-10T06:27:26;24.63;;;21.93;;
20000;SDS011;10161;41.188;-8.642;2022-07-10T06:29:53;20.83;;;18.80;;
20000;SDS011;10161;41.188;-8.642;2022-07-10T06:32:21;19.40;;;16.30;;
20000;SDS011;10161;41.188;-8.642;2022-07-10T06:34:49;22.60;;;20.37;;
20000;SDS011;10161;41.188;-8.642;2022-07-10T06:37:17;20.57;;;17.70;;
20000;SDS011;10161;41.188;-8.642;2022-07-10T06:39:45;18.10;;;16.20;;
20000;SDS011;10161;41.188;-8.642;2022-07-10T06:42:12;21.30;;;18.67;;
20000;SDS011;10161;41.188;-8.642;2022-07-10T06:44:39;18.80;;;16.90;;
20000;SDS011;10161;41.188;-8.642;2022-07-10T06:47:07;22.07;;;19.90;;
20000;SDS011;10161;41.188;-8.642;2022-07-10T06:50:06;21.53;;;19.33;;
20000;SDS011;10161;41.188;-8.642;2022-07-10T06:52:35;26.43;;;21.90;;
20000;SDS011;10161;41.188;-8.642;2022-07-10T06:55:03;20.60;;;18.43;;
20000;SDS011;10161;41.188;-8.642;2022-07-10T06:57:30;16.57;;;14.87;;
20000;SDS011;10161;41.188;-8.642;2022-07-10T06:59:58;18.00;;;16.20;;
20000;SDS011;10161;41.188;-8.642;2022-07-10T07:02:24;15.40;;;13.83;;
20000;SDS011;10161;41.188;-8.642;2022-07-10T07:04:51;17.87;;;13.50;;
20000;SDS011;10161;41.188;-8.642;2022-07-10T07:07:18;18.13;;;14.90;;
20000;SDS011;10161;41.188;-8.642;2022-07-10T07:09:47;15.97;;;14.20;;
20000;SDS011;10161;41.188;-8.642;2022-07-10T07:15:16;15.23;;;13.57;;
20000;SDS011;10161;41.188;-8.642;2022-07-10T07:17:45;12.90;;;11.60;;
20000;SDS011;10161;41.188;-8.642;2022-07-10T07:20:23;14.97;;;13.30;;
20000;SDS011;10161;41.188;-8.642;2022-07-10T07:23:08;22.87;;;19.17;;
20000;SDS011;10161;41.188;-8.642;2022-07-10T07:25:39;17.03;;;15.20;;
20000;SDS011;10161;41.188;-8.642;2022-07-10T07:28:11;14.93;;;12.43;;
20000;SDS011;10161;41.188;-8.642;2022-07-10T07:30:40;16.63;;;14.73;;
20000;SDS011;10161;41.188;-8.642;2022-07-10T07:33:07;17.30;;;15.50;;
20000;SDS011;10161;41.188;-8.642;2022-07-10T07:35:34;19.53;;;15.50;;
20000;SDS011;10161;41.188;-8.642;2022-07-10T07:38:01;14.33;;;12.80;;
20000;SDS011;10161;41.188;-8.642;2022-07-10T07:40:29;13.60;;;12.30;;
20000;SDS011;10161;41.188;-8.642;2022-07-10T07:42:57;14.90;;;12.93;;
20000;SDS011;10161;41.188;-8.642;2022-07-10T07:45:24;14.03;;;11.73;;
20000;SDS011;10161;41.188;-8.642;2022-07-10T07:47:53;12.83;;;11.67;;
20000;SDS011;10161;41.188;-8.642;2022-07-10T07:50:21;14.23;;;12.43;;
20000;SDS011;10161;41.188;-8.642;2022-07-10T07:52:50;15.60;;;14.00;;
20000;SDS011;10161;41.188;-8.642;2022-07-10T07:55:18;11.63;;;10.53;;
20000;SDS011;10161;41.188;-8.642;2022-07-10T07:57:45;16.67;;;15.07;;
20000;SDS011;10161;41.188;-8.642;2022-07-10T08:00:14;19.33;;;15.20;;
20000;SDS011;10161;41.188;-8.642;2022-07-10T08:02:42;14.07;;;12.60;;
20000;SDS011;10161;41.188;-8.642;2022-07-10T08:05:09;13.50;;;12.10;;
20000;SDS011;10161;41.188;-8.642;2022-07-10T08:07:37;16.43;;;14.73;;
20000;SDS011;10161;41.188;-8.642;2022-07-10T08:10:06;20.00;;;16.40;;
20000;SDS011;10161;41.188;-8.642;2022-07-10T08:15:43;21.90;;;16.70;;
20000;SDS011;10161;41.188;-8.642;2022-07-10T08:18:10;16.60;;;14.70;;
20000;SDS011;10161;41.188;-8.642;2022-07-10T08:20:37;14.47;;;13.07;;
20000;SDS011;10161;41.188;-8.642;2022-07-10T08:23:04;17.67;;;13.67;;
20000;SDS011;10161;41.188;-8.642;2022-07-10T08:25:31;18.83;;;16.30;;
20000;SDS011;10161;41.188;-8.642;2022-07-10T08:28:01;19.47;;;16.10;;
20000;SDS011;10161;41.188;-8.642;2022-07-10T08:30:30;19.97;;;15.63;;
20000;SDS011;10161;41.188;-8.642;2022-07-10T08:32:59;21.30;;;18.57;;
20000;SDS011;10161;41.188;-8.642;2022-07-10T08:38:47;20.47;;;17.90;;
20000;SDS011;10161;41.188;-8.642;2022-07-10T08:41:14;24.60;;;19.77;;
20000;SDS011;10161;41.188;-8.642;2022-07-10T08:47:03;27.00;;;20.33;;
20000;SDS011;10161;41.188;-8.642;2022-07-10T08:49:32;25.00;;;19.90;;
20000;SDS011;10161;41.188;-8.642;2022-07-10T08:52:02;30.30;;;21.73;;
20000;SDS011;10161;41.188;-8.642;2022-07-10T08:57:37;28.23;;;20.03;;
20000;SDS011;10161;41.188;-8.642;2022-07-10T09:00:05;29.50;;;22.10;;
20000;SDS011;10161;41.188;-8.642;2022-07-10T09:02:33;27.80;;;19.40;;
20000;SDS011;10161;41.188;-8.642;2022-07-10T09:05:01;31.53;;;23.33;;
20000;SDS011;10161;41.188;-8.642;2022-07-10T09:07:34;29.53;;;20.83;;
20000;SDS011;10161;41.188;-8.642;2022-07-10T09:10:04;30.03;;;21.17;;
20000;SDS011;10161;41.188;-8.642;2022-07-10T09:12:49;28.93;;;21.70;;
20000;SDS011;10161;41.188;-8.642;2022-07-10T09:15:17;23.73;;;20.13;;
20000;SDS011;10161;41.188;-8.642;2022-07-10T09:20:50;21.83;;;17.47;;
20000;SDS011;10161;41.188;-8.642;2022-07-10T09:23:17;17.70;;;13.83;;
20000;SDS011;10161;41.188;-8.642;2022-07-10T09:25:46;19.43;;;15.53;;
20000;SDS011;10161;41.188;-8.642;2022-07-10T09:28:16;24.73;;;20.80;;
20000;SDS011;10161;41.188;-8.642;2022-07-10T09:30:43;20.10;;;17.90;;
20000;SDS011;10161;41.188;-8.642;2022-07-10T09:33:14;21.20;;;17.87;;
20000;SDS011;10161;41.188;-8.642;2022-07-10T09:36:01;22.20;;;19.70;;
20000;SDS011;10161;41.188;-8.642;2022-07-10T09:41:21;27.50;;;24.60;;
20000;SDS011;10161;41.188;-8.642;2022-07-10T09:43:49;22.60;;;18.53;;
20000;SDS011;10161;41.188;-8.642;2022-07-10T09:46:18;23.53;;;21.13;;
20000;SDS011;10161;41.188;-8.642;2022-07-10T09:48:46;18.27;;;16.37;;
20000;SDS011;10161;41.188;-8.642;2022-07-10T09:51:14;13.97;;;12.40;;
20000;SDS011;10161;41.188;-8.642;2022-07-10T09:53:46;17.23;;;14.97;;
20000;SDS011;10161;41.188;-8.642;2022-07-10T09:56:13;15.43;;;13.80;;
20000;SDS011;10161;41.188;-8.642;2022-07-10T09:58:40;15.13;;;13.63;;
20000;SDS011;10161;41.188;-8.642;2022-07-10T10:01:07;13.17;;;11.87;;
20000;SDS011;10161;41.188;-8.642;2022-07-10T10:03:35;12.20;;;11.00;;
20000;SDS011;10161;41.188;-8.642;2022-07-10T10:06:03;10.63;;;9.63;;
20000;SDS011;10161;41.188;-8.642;2022-07-10T10:08:36;12.33;;;9.80;;
20000;SDS011;10161;41.188;-8.642;2022-07-10T10:11:08;9.73;;;8.87;;
20000;SDS011;10161;41.188;-8.642;2022-07-10T10:13:40;9.87;;;8.97;;
20000;SDS011;10161;41.188;-8.642;2022-07-10T10:16:18;12.03;;;10.00;;
20000;SDS011;10161;41.188;-8.642;2022-07-10T10:18:46;10.80;;;9.70;;
20000;SDS011;10161;41.188;-8.642;2022-07-10T10:21:30;10.60;;;9.70;;
20000;SDS011;10161;41.188;-8.642;2022-07-10T10:26:50;11.10;;;9.23;;
20000;SDS011;10161;41.188;-8.642;2022-07-10T10:29:18;10.53;;;9.53;;
20000;SDS011;10161;41.188;-8.642;2022-07-10T10:34:53;10.63;;;8.00;;
20000;SDS011;10161;41.188;-8.642;2022-07-10T10:37:29;9.70;;;8.80;;
20000;SDS011;10161;41.188;-8.642;2022-07-10T10:40:00;11.13;;;9.80;;
20000;SDS011;10161;41.188;-8.642;2022-07-10T10:42:35;11.93;;;10.70;;
20000;SDS011;10161;41.188;-8.642;2022-07-10T10:45:22;9.87;;;8.60;;
20000;SDS011;10161;41.188;-8.642;2022-07-10T10:48:00;9.00;;;8.20;;
20000;SDS011;10161;41.188;-8.642;2022-07-10T10:50:38;11.47;;;8.50;;
20000;SDS011;10161;41.188;-8.642;2022-07-10T10:53:11;12.70;;;11.37;;
20000;SDS011;10161;41.188;-8.642;2022-07-10T10:55:40;13.80;;;12.40;;
20000;SDS011;10161;41.188;-8.642;2022-07-10T10:58:17;10.93;;;9.83;;
20000;SDS011;10161;41.188;-8.642;2022-07-10T11:00:49;12.90;;;11.60;;
20000;SDS011;10161;41.188;-8.642;2022-07-10T11:03:17;12.63;;;9.20;;
20000;SDS011;10161;41.188;-8.642;2022-07-10T11:05:46;10.27;;;9.37;;
20000;SDS011;10161;41.188;-8.642;2022-07-10T11:08:14;10.00;;;8.93;;
20000;SDS011;10161;41.188;-8.642;2022-07-10T11:11:02;11.63;;;10.50;;
20000;SDS011;10161;41.188;-8.642;2022-07-10T11:14:06;13.87;;;12.57;;
20000;SDS011;10161;41.188;-8.642;2022-07-10T11:19:32;11.73;;;10.63;;
20000;SDS011;10161;41.188;-8.642;2022-07-10T11:24:58;12.00;;;10.87;;
20000;SDS011;10161;41.188;-8.642;2022-07-10T11:30:45;11.40;;;9.57;;
20000;SDS011;10161;41.188;-8.642;2022-07-10T11:33:13;12.33;;;11.23;;
20000;SDS011;10161;41.188;-8.642;2022-07-10T11:35:41;14.70;;;12.97;;
20000;SDS011;10161;41.188;-8.642;2022-07-10T11:38:11;16.87;;;15.13;;
20000;SDS011;10161;41.188;-8.642;2022-07-10T11:40:38;15.03;;;13.60;;
20000;SDS011;10161;41.188;-8.642;2022-07-10T11:43:05;12.40;;;11.30;;
20000;SDS011;10161;41.188;-8.642;2022-07-10T11:45:34;12.43;;;11.10;;
20000;SDS011;10161;41.188;-8.642;2022-07-10T11:48:05;13.13;;;11.97;;
20000;SDS011;10161;41.188;-8.642;2022-07-10T11:50:34;10.77;;;9.80;;
20000;SDS011;10161;41.188;-8.642;2022-07-10T11:53:02;13.23;;;12.03;;
20000;SDS011;10161;41.188;-8.642;2022-07-10T11:55:29;12.07;;;10.57;;
20000;SDS011;10161;41.188;-8.642;2022-07-10T11:58:11;12.77;;;11.47;;
20000;SDS011;10161;41.188;-8.642;2022-07-10T12:00:39;13.63;;;12.40;;
20000;SDS011;10161;41.188;-8.642;2022-07-10T12:03:17;12.73;;;11.57;;
20000;SDS011;10161;41.188;-8.642;2022-07-10T12:05:45;13.53;;;12.10;;
20000;SDS011;10161;41.188;-8.642;2022-07-10T12:08:12;11.80;;;10.60;;
20000;SDS011;10161;41.188;-8.642;2022-07-10T12:10:40;13.70;;;12.30;;
20000;SDS011;10161;41.188;-8.642;2022-07-10T12:13:08;12.40;;;11.30;;
20000;SDS011;10161;41.188;-8.642;2022-07-10T12:15:37;11.10;;;10.13;;
20000;SDS011;10161;41.188;-8.642;2022-07-10T12:18:05;18.03;;;16.37;;
20000;SDS011;10161;41.188;-8.642;2022-07-10T12:20:34;15.60;;;14.10;;
20000;SDS011;10161;41.188;-8.642;2022-07-10T12:23:02;14.27;;;12.80;;
20000;SDS011;10161;41.188;-8.642;2022-07-10T12:25:29;10.70;;;9.70;;
20000;SDS011;10161;41.188;-8.642;2022-07-10T12:27:57;8.33;;;7.63;;
20000;SDS011;10161;41.188;-8.642;2022-07-10T12:30:36;9.70;;;8.60;;
20000;SDS011;10161;41.188;-8.642;2022-07-10T12:33:07;11.10;;;9.00;;
20000;SDS011;10161;41.188;-8.642;2022-07-10T12:35:50;8.87;;;7.30;;
20000;SDS011;10161;41.188;-8.642;2022-07-10T12:38:18;8.73;;;7.00;;
20000;SDS011;10161;41.188;-8.642;2022-07-10T12:40:46;7.87;;;6.77;;
20000;SDS011;10161;41.188;-8.642;2022-07-10T12:43:23;8.60;;;7.80;;
20000;SDS011;10161;41.188;-8.642;2022-07-10T12:49:04;8.40;;;7.57;;
20000;SDS011;10161;41.188;-8.642;2022-07-10T12:51:33;7.60;;;7.00;;
20000;SDS011;10161;41.188;-8.642;2022-07-10T12:54:01;6.57;;;5.97;;
20000;SDS011;10161;41.188;-8.642;2022-07-10T12:56:29;7.70;;;7.10;;
20000;SDS011;10161;41.188;-8.642;2022-07-10T12:58:57;9.33;;;7.10;;
20000;SDS011;10161;41.188;-8.642;2022-07-10T13:01:25;8.97;;;8.17;;
20000;SDS011;10161;41.188;-8.642;2022-07-10T13:04:00;9.90;;;9.00;;
20000;SDS011;10161;41.188;-8.642;2022-07-10T13:06:31;9.43;;;8.53;;
20000;SDS011;10161;41.188;-8.642;2022-07-10T13:09:02;10.77;;;8.70;;
20000;SDS011;10161;41.188;-8.642;2022-07-10T13:11:29;10.93;;;9.93;;
20000;SDS011;10161;41.188;-8.642;2022-07-10T13:13:56;9.77;;;8.87;;
20000;SDS011;10161;41.188;-8.642;2022-07-10T13:16:23;8.83;;;8.13;;
20000;SDS011;10161;41.188;-8.642;2022-07-10T13:18:50;11.17;;;9.97;;
20000;SDS011;10161;41.188;-8.642;2022-07-10T13:24:40;10.00;;;8.83;;
20000;SDS011;10161;41.188;-8.642;2022-07-10T13:27:07;8.57;;;7.77;;
20000;SDS011;10161;41.188;-8.642;2022-07-10T13:29:34;8.83;;;8.00;;
20000;SDS011;10161;41.188;-8.642;2022-07-10T13:32:01;11.20;;;10.17;;
20000;SDS011;10161;41.188;-8.642;2022-07-10T13:37:50;10.33;;;9.33;;
20000;SDS011;10161;41.188;-8.642;2022-07-10T13:40:19;10.87;;;9.97;;
20000;SDS011;10161;41.188;-8.642;2022-07-10T13:42:46;9.90;;;9.00;;
20000;SDS011;10161;41.188;-8.642;2022-07-10T13:45:13;14.60;;;8.33;;
20000;SDS011;10161;41.188;-8.642;2022-07-10T13:47:40;11.97;;;7.93;;
20000;SDS011;10161;41.188;-8.642;2022-07-10T13:50:07;8.80;;;8.00;;
20000;SDS011;10161;41.188;-8.642;2022-07-10T13:52:34;8.70;;;7.57;;
20000;SDS011;10161;41.188;-8.642;2022-07-10T13:55:01;9.00;;;8.17;;
20000;SDS011;10161;41.188;-8.642;2022-07-10T13:57:33;8.07;;;7.37;;
20000;SDS011;10161;41.188;-8.642;2022-07-10T13:59:59;7.83;;;7.00;;
20000;SDS011;10161;41.188;-8.642;2022-07-10T14:02:38;9.03;;;8.23;;
20000;SDS011;10161;41.188;-8.642;2022-07-10T14:05:05;8.40;;;7.60;;
20000;SDS011;10161;41.188;-8.642;2022-07-10T14:07:33;9.30;;;8.50;;
20000;SDS011;10161;41.188;-8.642;2022-07-10T14:10:02;8.03;;;7.17;;
20000;SDS011;10161;41.188;-8.642;2022-07-10T14:12:29;7.23;;;6.63;;
20000;SDS011;10161;41.188;-8.642;2022-07-10T14:14:58;9.30;;;6.47;;
20000;SDS011;10161;41.188;-8.642;2022-07-10T14:17:25;6.80;;;5.60;;
20000;SDS011;10161;41.188;-8.642;2022-07-10T14:19:53;6.80;;;6.20;;
20000;SDS011;10161;41.188;-8.642;2022-07-10T14:22:20;6.37;;;5.77;;
20000;SDS011;10161;41.188;-8.642;2022-07-10T14:24:47;8.33;;;6.93;;
20000;SDS011;10161;41.188;-8.642;2022-07-10T14:27:14;7.67;;;7.07;;
20000;SDS011;10161;41.188;-8.642;2022-07-10T14:29:42;7.10;;;6.40;;
20000;SDS011;10161;41.188;-8.642;2022-07-10T14:32:10;6.90;;;6.30;;
20000;SDS011;10161;41.188;-8.642;2022-07-10T14:34:37;7.00;;;6.43;;
20000;SDS011;10161;41.188;-8.642;2022-07-10T14:37:04;10.03;;;7.57;;
20000;SDS011;10161;41.188;-8.642;2022-07-10T14:39:31;8.07;;;7.27;;
20000;SDS011;10161;41.188;-8.642;2022-07-10T14:41:58;6.17;;;5.67;;
20000;SDS011;10161;41.188;-8.642;2022-07-10T14:44:26;7.43;;;6.73;;
20000;SDS011;10161;41.188;-8.642;2022-07-10T14:46:53;9.90;;;5.77;;
20000;SDS011;10161;41.188;-8.642;2022-07-10T14:49:21;6.00;;;5.60;;
20000;SDS011;10161;41.188;-8.642;2022-07-10T14:51:49;5.87;;;5.37;;
20000;SDS011;10161;41.188;-8.642;2022-07-10T14:54:16;6.13;;;5.63;;
20000;SDS011;10161;41.188;-8.642;2022-07-10T14:56:44;7.30;;;6.40;;
20000;SDS011;10161;41.188;-8.642;2022-07-10T14:59:11;7.30;;;6.70;;
20000;SDS011;10161;41.188;-8.642;2022-07-10T15:01:38;6.50;;;6.00;;
20000;SDS011;10161;41.188;-8.642;2022-07-10T15:04:05;6.00;;;5.50;;
20000;SDS011;10161;41.188;-8.642;2022-07-10T15:09:56;7.13;;;6.53;;
20000;SDS011;10161;41.188;-8.642;2022-07-10T15:12:23;6.20;;;5.60;;
20000;SDS011;10161;41.188;-8.642;2022-07-10T15:14:50;7.33;;;6.60;;
20000;SDS011;10161;41.188;-8.642;2022-07-10T15:17:17;8.30;;;6.20;;
20000;SDS011;10161;41.188;-8.642;2022-07-10T15:19:44;6.63;;;6.10;;
20000;SDS011;10161;41.188;-8.642;2022-07-10T15:22:11;6.93;;;6.33;;
20000;SDS011;10161;41.188;-8.642;2022-07-10T15:24:38;7.03;;;6.43;;
20000;SDS011;10161;41.188;-8.642;2022-07-10T15:27:10;7.60;;;6.90;;
20000;SDS011;10161;41.188;-8.642;2022-07-10T15:29:38;8.03;;;6.80;;
20000;SDS011;10161;41.188;-8.642;2022-07-10T15:32:05;7.53;;;6.80;;
20000;SDS011;10161;41.188;-8.642;2022-07-10T15:34:33;6.80;;;6.20;;
20000;SDS011;10161;41.188;-8.642;2022-07-10T15:37:00;7.10;;;6.33;;
20000;SDS011;10161;41.188;-8.642;2022-07-10T15:39:27;6.77;;;6.17;;
20000;SDS011;10161;41.188;-8.642;2022-07-10T15:41:54;7.03;;;6.33;;
20000;SDS011;10161;41.188;-8.642;2022-07-10T15:44:22;6.03;;;5.40;;
20000;SDS011;10161;41.188;-8.642;2022-07-10T15:46:49;8.33;;;6.10;;
20000;SDS011;10161;41.188;-8.642;2022-07-10T15:49:16;6.93;;;6.33;;
20000;SDS011;10161;41.188;-8.642;2022-07-10T15:51:43;7.30;;;6.60;;
20000;SDS011;10161;41.188;-8.642;2022-07-10T15:54:10;11.70;;;7.13;;
20000;SDS011;10161;41.188;-8.642;2022-07-10T15:56:38;8.23;;;7.37;;